sensor_id;sensor_type;location;lat;lon;timestamp;pressure;altitude;pressure_sealevel;temperature;humidity
43488;BME280;29078;41.932;25.554;2023-02-28T00:01:25;99923.16;;;14.41;65.84
43488;BME280;29078;41.932;25.554;2023-02-28T00:03:50;100008.31;;;14.82;66.17
43488;BME280;29078;41.932;25.554;2023-02-28T00:06:16;99967.50;;;14.62;65.93
43488;BME280;29078;41.932;25.554;2023-02-28T00:08:41;100041.78;;;14.98;66.09
43488;BME280;29078;41.932;25.554;2023-02-28T00:11:10;100039.56;;;15.02;66.10
43488;BME280;29078;41.932;25.554;2023-02-28T00:13:37;100049.19;;;15.03;66.16
43488;BME280;29078;41.932;25.554;2023-02-28T00:16:11;100061.66;;;15.02;66.05
43488;BME280;29078;41.932;25.554;2023-02-28T00:18:38;100026.81;;;14.69;65.95
43488;BME280;29078;41.932;25.554;2023-02-28T00:21:04;100069.16;;;14.92;65.56
43488;BME280;29078;41.932;25.554;2023-02-28T00:23:30;100002.94;;;14.48;66.23
43488;BME280;29078;41.932;25.554;2023-02-28T00:25:56;100051.28;;;14.86;66.41
43488;BME280;29078;41.932;25.554;2023-02-28T00:28:22;99973.16;;;14.31;66.34
43488;BME280;29078;41.932;25.554;2023-02-28T00:30:47;100003.69;;;14.42;66.61
43488;BME280;29078;41.932;25.554;2023-02-28T00:33:13;100015.50;;;14.39;66.18
43488;BME280;29078;41.932;25.554;2023-02-28T00:35:39;100059.94;;;14.67;65.88
43488;BME280;29078;41.932;25.554;2023-02-28T00:38:04;100031.25;;;14.41;65.32
43488;BME280;29078;41.932;25.554;2023-02-28T00:40:30;100022.22;;;14.14;65.43
43488;BME280;29078;41.932;25.554;2023-02-28T00:42:56;99964.28;;;14.03;65.30
43488;BME280;29078;41.932;25.554;2023-02-28T00:45:21;100083.22;;;14.65;65.71
43488;BME280;29078;41.932;25.554;2023-02-28T00:47:47;100083.59;;;14.61;65.72
43488;BME280;29078;41.932;25.554;2023-02-28T00:50:18;100054.97;;;14.21;65.80
43488;BME280;29078;41.932;25.554;2023-02-28T00:52:44;100097.50;;;14.63;65.62
43488;BME280;29078;41.932;25.554;2023-02-28T00:55:10;100091.13;;;14.58;65.41
43488;BME280;29078;41.932;25.554;2023-02-28T00:57:35;100097.00;;;14.53;65.14
43488;BME280;29078;41.932;25.554;2023-02-28T01:00:01;100109.66;;;14.51;65.25
43488;BME280;29078;41.932;25.554;2023-02-28T01:02:27;100035.06;;;13.95;65.16
43488;BME280;29078;41.932;25.554;2023-02-28T01:04:52;100086.66;;;14.22;65.00
43488;BME280;29078;41.932;25.554;2023-02-28T01:07:18;100086.28;;;14.25;64.52
43488;BME280;29078;41.932;25.554;2023-02-28T01:09:43;100120.88;;;14.47;64.25
43488;BME280;29078;41.932;25.554;2023-02-28T01:12:08;100063.78;;;14.07;63.81
43488;BME280;29078;41.932;25.554;2023-02-28T01:14:34;100035.00;;;13.89;63.89
43488;BME280;29078;41.932;25.554;2023-02-28T01:17:00;99990.16;;;13.58;63.66
43488;BME280;29078;41.932;25.554;2023-02-28T01:19:26;100050.75;;;13.90;63.09
43488;BME280;29078;41.932;25.554;2023-02-28T01:21:51;100124.09;;;14.27;63.68
43488;BME280;29078;41.932;25.554;2023-02-28T01:24:17;100138.50;;;14.18;63.54
43488;BME280;29078;41.932;25.554;2023-02-28T01:26:42;100028.22;;;13.50;63.25
43488;BME280;29078;41.932;25.554;2023-02-28T01:29:07;100137.31;;;14.21;63.12
43488;BME280;29078;41.932;25.554;2023-02-28T01:31:33;100014.88;;;13.44;62.89
43488;BME280;29078;41.932;25.554;2023-02-28T01:33:58;100125.50;;;14.09;63.03
43488;BME280;29078;41.932;25.554;2023-02-28T01:36:24;100140.97;;;14.05;62.75
43488;BME280;29078;41.932;25.554;2023-02-28T01:38:51;100040.31;;;13.38;62.48
43488;BME280;29078;41.932;25.554;2023-02-28T01:46:13;100049.47;;;13.13;62.20
43488;BME280;29078;41.932;25.554;2023-02-28T01:48:49;100092.31;;;13.24;62.10
43488;BME280;29078;41.932;25.554;2023-02-28T01:51:30;100147.69;;;13.57;62.00
43488;BME280;29078;41.932;25.554;2023-02-28T01:54:05;100043.69;;;12.80;62.18
43488;BME280;29078;41.932;25.554;2023-02-28T01:56:41;100078.28;;;13.01;62.45
43488;BME280;29078;41.932;25.554;2023-02-28T01:59:07;100087.78;;;13.10;62.21
43488;BME280;29078;41.932;25.554;2023-02-28T02:01:33;100164.16;;;13.52;61.79
43488;BME280;29078;41.932;25.554;2023-02-28T02:04:01;100103.78;;;13.02;61.91
43488;BME280;29078;41.932;25.554;2023-02-28T02:06:39;100011.41;;;12.38;61.65
43488;BME280;29078;41.932;25.554;2023-02-28T02:09:05;99891.56;;;11.30;61.61
43488;BME280;29078;41.932;25.554;2023-02-28T02:11:31;100089.09;;;12.77;61.67
43488;BME280;29078;41.932;25.554;2023-02-28T02:22:23;100191.66;;;13.14;61.49
43488;BME280;29078;41.932;25.554;2023-02-28T02:35:59;100196.44;;;12.95;60.64
43488;BME280;29078;41.932;25.554;2023-02-28T02:38:50;100205.28;;;12.88;60.73
43488;BME280;29078;41.932;25.554;2023-02-28T02:43:53;100213.56;;;12.85;60.20
43488;BME280;29078;41.932;25.554;2023-02-28T02:46:25;100213.09;;;12.81;60.53
43488;BME280;29078;41.932;25.554;2023-02-28T02:48:54;100101.66;;;12.06;60.41
43488;BME280;29078;41.932;25.554;2023-02-28T02:51:22;100165.44;;;12.50;60.01
43488;BME280;29078;41.932;25.554;2023-02-28T02:53:52;100212.53;;;12.63;60.20
43488;BME280;29078;41.932;25.554;2023-02-28T02:56:23;100072.78;;;11.88;60.01
43488;BME280;29078;41.932;25.554;2023-02-28T02:58:51;100155.94;;;12.33;59.90
43488;BME280;29078;41.932;25.554;2023-02-28T03:01:21;100163.88;;;12.33;59.46
43488;BME280;29078;41.932;25.554;2023-02-28T03:04:14;100225.63;;;12.64;59.28
43488;BME280;29078;41.932;25.554;2023-02-28T03:06:41;100157.00;;;12.16;59.50
43488;BME280;29078;41.932;25.554;2023-02-28T03:09:07;100171.91;;;12.17;59.30
43488;BME280;29078;41.932;25.554;2023-02-28T03:11:32;100187.00;;;12.39;59.21
43488;BME280;29078;41.932;25.554;2023-02-28T03:17:41;100225.81;;;12.55;58.76
43488;BME280;29078;41.932;25.554;2023-02-28T03:23:07;100189.00;;;12.06;58.88
43488;BME280;29078;41.932;25.554;2023-02-28T03:28:37;100225.00;;;12.54;58.45
43488;BME280;29078;41.932;25.554;2023-02-28T03:31:20;100240.38;;;12.59;58.36
43488;BME280;29078;41.932;25.554;2023-02-28T03:33:53;100157.19;;;12.14;58.33
43488;BME280;29078;41.932;25.554;2023-02-28T03:36:26;100130.47;;;12.01;58.11
43488;BME280;29078;41.932;25.554;2023-02-28T03:39:00;100216.44;;;12.44;57.78
43488;BME280;29078;41.932;25.554;2023-02-28T03:41:44;100129.31;;;11.95;57.75
43488;BME280;29078;41.932;25.554;2023-02-28T03:44:19;100149.47;;;12.04;57.86
43488;BME280;29078;41.932;25.554;2023-02-28T03:47:22;100236.75;;;12.52;57.28
43488;BME280;29078;41.932;25.554;2023-02-28T03:49:55;100230.81;;;12.50;58.17
43488;BME280;29078;41.932;25.554;2023-02-28T03:52:22;100234.19;;;12.35;57.76
43488;BME280;29078;41.932;25.554;2023-02-28T03:54:52;100105.44;;;11.56;58.08
43488;BME280;29078;41.932;25.554;2023-02-28T03:57:53;100240.66;;;12.33;57.82
43488;BME280;29078;41.932;25.554;2023-02-28T04:00:28;100239.50;;;12.35;57.78
43488;BME280;29078;41.932;25.554;2023-02-28T04:02:56;100253.06;;;12.32;58.01
43488;BME280;29078;41.932;25.554;2023-02-28T04:05:22;100208.34;;;12.06;57.47
43488;BME280;29078;41.932;25.554;2023-02-28T04:07:48;100222.75;;;12.04;57.53
43488;BME280;29078;41.932;25.554;2023-02-28T04:10:15;100214.50;;;11.99;58.09
43488;BME280;29078;41.932;25.554;2023-02-28T04:12:40;100204.41;;;11.86;57.46
43488;BME280;29078;41.932;25.554;2023-02-28T04:15:06;100284.41;;;12.21;58.05
43488;BME280;29078;41.932;25.554;2023-02-28T04:17:32;100138.72;;;11.42;57.63
43488;BME280;29078;41.932;25.554;2023-02-28T04:19:57;100260.09;;;12.17;57.88
43488;BME280;29078;41.932;25.554;2023-02-28T04:22:23;100185.09;;;11.77;57.73
43488;BME280;29078;41.932;25.554;2023-02-28T04:24:52;100000.75;;;10.67;57.37
43488;BME280;29078;41.932;25.554;2023-02-28T04:27:20;100265.50;;;12.32;57.37
43488;BME280;29078;41.932;25.554;2023-02-28T04:29:46;100148.91;;;11.62;57.03
43488;BME280;29078;41.932;25.554;2023-02-28T04:32:11;100158.63;;;11.69;56.99
43488;BME280;29078;41.932;25.554;2023-02-28T04:34:37;100274.28;;;12.24;57.62
43488;BME280;29078;41.932;25.554;2023-02-28T04:37:03;100181.75;;;11.75;57.11
43488;BME280;29078;41.932;25.554;2023-02-28T04:39:28;100232.84;;;12.00;57.31
43488;BME280;29078;41.932;25.554;2023-02-28T04:41:55;100288.78;;;12.45;57.08
43488;BME280;29078;41.932;25.554;2023-02-28T04:44:20;100205.75;;;11.90;57.51
43488;BME280;29078;41.932;25.554;2023-02-28T04:46:47;100263.34;;;12.27;57.32
43488;BME280;29078;41.932;25.554;2023-02-28T04:49:13;100286.81;;;12.38;57.38
43488;BME280;29078;41.932;25.554;2023-02-28T04:51:39;100240.78;;;12.00;57.32
43488;BME280;29078;41.932;25.554;2023-02-28T04:54:05;100276.97;;;12.16;56.93
43488;BME280;29078;41.932;25.554;2023-02-28T04:56:31;100215.03;;;11.62;57.37
43488;BME280;29078;41.932;25.554;2023-02-28T04:58:56;100184.50;;;11.27;57.42
43488;BME280;29078;41.932;25.554;2023-02-28T05:01:23;100316.34;;;12.11;57.89
43488;BME280;29078;41.932;25.554;2023-02-28T05:03:49;100321.97;;;12.16;57.89
43488;BME280;29078;41.932;25.554;2023-02-28T05:06:16;100324.13;;;12.21;58.07
43488;BME280;29078;41.932;25.554;2023-02-28T05:08:42;100236.69;;;11.57;57.39
43488;BME280;29078;41.932;25.554;2023-02-28T05:13:45;100329.41;;;12.21;57.87
43488;BME280;29078;41.932;25.554;2023-02-28T05:16:11;100216.69;;;11.55;57.79
43488;BME280;29078;41.932;25.554;2023-02-28T05:18:37;100208.94;;;11.37;57.44
43488;BME280;29078;41.932;25.554;2023-02-28T05:21:02;100337.00;;;12.24;57.74
43488;BME280;29078;41.932;25.554;2023-02-28T05:23:28;100341.47;;;12.23;58.17
43488;BME280;29078;41.932;25.554;2023-02-28T05:25:54;100230.75;;;11.55;57.60
43488;BME280;29078;41.932;25.554;2023-02-28T05:28:20;100316.53;;;12.09;57.50
43488;BME280;29078;41.932;25.554;2023-02-28T05:30:46;100254.03;;;11.68;57.70
43488;BME280;29078;41.932;25.554;2023-02-28T05:33:11;100318.00;;;12.12;57.45
43488;BME280;29078;41.932;25.554;2023-02-28T05:35:40;100349.59;;;12.22;57.60
43488;BME280;29078;41.932;25.554;2023-02-28T05:38:06;100322.34;;;11.97;57.82
43488;BME280;29078;41.932;25.554;2023-02-28T05:40:32;100289.25;;;11.60;57.99
43488;BME280;29078;41.932;25.554;2023-02-28T05:42:57;100310.41;;;11.68;58.77
43488;BME280;29078;41.932;25.554;2023-02-28T05:45:23;100294.22;;;11.47;58.48
43488;BME280;29078;41.932;25.554;2023-02-28T05:47:48;100267.59;;;11.16;58.68
43488;BME280;29078;41.932;25.554;2023-02-28T05:50:14;100376.09;;;11.89;58.68
43488;BME280;29078;41.932;25.554;2023-02-28T05:52:39;100300.50;;;11.46;59.06
43488;BME280;29078;41.932;25.554;2023-02-28T05:55:05;100340.81;;;11.72;58.69
43488;BME280;29078;41.932;25.554;2023-02-28T05:57:30;100364.03;;;11.95;58.55
43488;BME280;29078;41.932;25.554;2023-02-28T05:59:56;100353.56;;;11.77;58.89
43488;BME280;29078;41.932;25.554;2023-02-28T06:02:21;100303.63;;;11.50;58.97
43488;BME280;29078;41.932;25.554;2023-02-28T06:04:46;100091.09;;;10.12;59.21
43488;BME280;29078;41.932;25.554;2023-02-28T06:07:12;100255.34;;;11.07;59.15
43488;BME280;29078;41.932;25.554;2023-02-28T06:09:37;100260.94;;;11.04;58.94
43488;BME280;29078;41.932;25.554;2023-02-28T06:12:04;100376.88;;;11.65;59.36
43488;BME280;29078;41.932;25.554;2023-02-28T06:14:32;100412.63;;;11.77;59.48
43488;BME280;29078;41.932;25.554;2023-02-28T06:16:59;100415.09;;;11.87;59.15
43488;BME280;29078;41.932;25.554;2023-02-28T06:19:25;100354.19;;;11.30;59.89
43488;BME280;29078;41.932;25.554;2023-02-28T06:21:52;100419.56;;;11.78;59.58
43488;BME280;29078;41.932;25.554;2023-02-28T06:24:21;100309.06;;;11.16;59.41
43488;BME280;29078;41.932;25.554;2023-02-28T06:26:47;100323.63;;;11.28;59.59
43488;BME280;29078;41.932;25.554;2023-02-28T06:29:13;100422.38;;;11.85;59.16
43488;BME280;29078;41.932;25.554;2023-02-28T06:31:44;100438.75;;;11.81;59.84
43488;BME280;29078;41.932;25.554;2023-02-28T06:34:11;100408.09;;;11.54;60.02
43488;BME280;29078;41.932;25.554;2023-02-28T06:36:40;100398.50;;;11.53;59.43
43488;BME280;29078;41.932;25.554;2023-02-28T06:39:07;100415.22;;;11.61;60.01
43488;BME280;29078;41.932;25.554;2023-02-28T06:41:33;100297.59;;;10.91;59.56
43488;BME280;29078;41.932;25.554;2023-02-28T06:44:04;100333.84;;;11.23;59.89
43488;BME280;29078;41.932;25.554;2023-02-28T06:46:29;100392.69;;;11.33;59.91
43488;BME280;29078;41.932;25.554;2023-02-28T06:48:54;100278.28;;;10.90;60.14
43488;BME280;29078;41.932;25.554;2023-02-28T06:51:20;100418.19;;;11.50;60.04
43488;BME280;29078;41.932;25.554;2023-02-28T06:53:47;100430.16;;;11.78;60.37
43488;BME280;29078;41.932;25.554;2023-02-28T06:56:15;100424.31;;;11.75;60.90
43488;BME280;29078;41.932;25.554;2023-02-28T06:58:41;100442.03;;;11.74;61.03
43488;BME280;29078;41.932;25.554;2023-02-28T07:01:07;100421.50;;;11.68;61.03
43488;BME280;29078;41.932;25.554;2023-02-28T07:03:35;100405.63;;;11.52;60.55
43488;BME280;29078;41.932;25.554;2023-02-28T07:06:01;100277.88;;;10.69;61.04
43488;BME280;29078;41.932;25.554;2023-02-28T07:08:28;100432.72;;;11.54;61.39
43488;BME280;29078;41.932;25.554;2023-02-28T07:10:56;100406.75;;;11.41;61.25
43488;BME280;29078;41.932;25.554;2023-02-28T07:13:22;100327.47;;;10.91;61.34
43488;BME280;29078;41.932;25.554;2023-02-28T07:15:55;100438.19;;;11.61;60.88
43488;BME280;29078;41.932;25.554;2023-02-28T07:18:20;100385.56;;;11.25;61.10
43488;BME280;29078;41.932;25.554;2023-02-28T07:20:45;100329.13;;;10.92;61.11
43488;BME280;29078;41.932;25.554;2023-02-28T07:23:11;100455.91;;;11.68;61.33
43488;BME280;29078;41.932;25.554;2023-02-28T07:25:36;100374.50;;;11.30;61.42
43488;BME280;29078;41.932;25.554;2023-02-28T07:28:02;100354.63;;;11.09;61.32
43488;BME280;29078;41.932;25.554;2023-02-28T07:30:27;100465.31;;;11.71;61.22
43488;BME280;29078;41.932;25.554;2023-02-28T07:32:52;100453.91;;;11.70;61.47
43488;BME280;29078;41.932;25.554;2023-02-28T07:35:21;100302.84;;;10.74;61.69
43488;BME280;29078;41.932;25.554;2023-02-28T07:37:47;100370.00;;;11.14;61.52
43488;BME280;29078;41.932;25.554;2023-02-28T07:40:12;100434.56;;;11.70;61.82
43488;BME280;29078;41.932;25.554;2023-02-28T07:42:39;100383.63;;;11.43;62.08
43488;BME280;29078;41.932;25.554;2023-02-28T07:45:05;100431.59;;;11.73;62.07
43488;BME280;29078;41.932;25.554;2023-02-28T07:47:31;100444.50;;;11.68;61.96
43488;BME280;29078;41.932;25.554;2023-02-28T07:49:57;100422.00;;;11.56;61.85
43488;BME280;29078;41.932;25.554;2023-02-28T07:52:23;100441.19;;;11.66;62.08
43488;BME280;29078;41.932;25.554;2023-02-28T07:54:49;100410.22;;;11.34;62.27
43488;BME280;29078;41.932;25.554;2023-02-28T07:57:15;100443.16;;;11.64;62.21
43488;BME280;29078;41.932;25.554;2023-02-28T07:59:41;100350.44;;;10.91;61.95
43488;BME280;29078;41.932;25.554;2023-02-28T08:02:06;100413.00;;;11.24;62.53
43488;BME280;29078;41.932;25.554;2023-02-28T08:04:32;100392.44;;;11.10;62.15
43488;BME280;29078;41.932;25.554;2023-02-28T08:06:57;100401.25;;;11.19;62.39
43488;BME280;29078;41.932;25.554;2023-02-28T08:09:23;100424.41;;;11.25;62.10
43488;BME280;29078;41.932;25.554;2023-02-28T08:11:48;100352.44;;;10.97;61.91
43488;BME280;29078;41.932;25.554;2023-02-28T08:14:14;100353.09;;;10.99;62.42
43488;BME280;29078;41.932;25.554;2023-02-28T08:16:39;100340.69;;;10.91;62.54
43488;BME280;29078;41.932;25.554;2023-02-28T08:19:04;100346.66;;;11.01;61.84
43488;BME280;29078;41.932;25.554;2023-02-28T08:21:30;100414.84;;;11.40;62.45
43488;BME280;29078;41.932;25.554;2023-02-28T08:23:55;100388.44;;;10.98;62.40
43488;BME280;29078;41.932;25.554;2023-02-28T08:26:22;100465.16;;;11.72;62.22
43488;BME280;29078;41.932;25.554;2023-02-28T08:28:47;100343.16;;;10.93;62.16
43488;BME280;29078;41.932;25.554;2023-02-28T08:31:15;100453.44;;;11.75;61.97
43488;BME280;29078;41.932;25.554;2023-02-28T08:33:41;100461.72;;;11.80;62.26
43488;BME280;29078;41.932;25.554;2023-02-28T08:36:08;100465.38;;;11.79;62.00
43488;BME280;29078;41.932;25.554;2023-02-28T08:38:34;100452.25;;;11.69;62.27
43488;BME280;29078;41.932;25.554;2023-02-28T08:41:05;100461.06;;;11.78;62.29
43488;BME280;29078;41.932;25.554;2023-02-28T08:43:32;100452.25;;;11.61;62.73
43488;BME280;29078;41.932;25.554;2023-02-28T08:45:58;100343.00;;;10.94;62.75
43488;BME280;29078;41.932;25.554;2023-02-28T08:48:27;100313.91;;;10.78;62.80
43488;BME280;29078;41.932;25.554;2023-02-28T08:51:02;100461.50;;;11.65;63.33
43488;BME280;29078;41.932;25.554;2023-02-28T08:53:27;100399.13;;;11.30;64.12
43488;BME280;29078;41.932;25.554;2023-02-28T08:56:08;100453.91;;;11.70;64.32
43488;BME280;29078;41.932;25.554;2023-02-28T08:58:34;100383.59;;;11.27;63.92
43488;BME280;29078;41.932;25.554;2023-02-28T09:01:00;100408.75;;;11.39;64.52
43488;BME280;29078;41.932;25.554;2023-02-28T09:03:26;100477.78;;;11.78;64.61
43488;BME280;29078;41.932;25.554;2023-02-28T09:05:59;100471.66;;;11.78;65.26
43488;BME280;29078;41.932;25.554;2023-02-28T09:08:27;100467.31;;;11.77;64.25
43488;BME280;29078;41.932;25.554;2023-02-28T09:10:52;100469.31;;;11.75;64.39
43488;BME280;29078;41.932;25.554;2023-02-28T09:13:20;100465.81;;;11.74;65.10
43488;BME280;29078;41.932;25.554;2023-02-28T09:15:45;100348.13;;;10.96;65.11
43488;BME280;29078;41.932;25.554;2023-02-28T09:18:11;100362.88;;;11.14;64.57
43488;BME280;29078;41.932;25.554;2023-02-28T09:20:38;100347.00;;;11.06;65.29
43488;BME280;29078;41.932;25.554;2023-02-28T09:23:05;100388.56;;;11.30;64.84
43488;BME280;29078;41.932;25.554;2023-02-28T09:25:31;100447.81;;;11.70;65.62
43488;BME280;29078;41.932;25.554;2023-02-28T09:27:56;100377.81;;;11.24;65.48
43488;BME280;29078;41.932;25.554;2023-02-28T09:30:21;100387.56;;;11.31;65.72
43488;BME280;29078;41.932;25.554;2023-02-28T09:32:47;100359.28;;;11.16;65.62
43488;BME280;29078;41.932;25.554;2023-02-28T09:35:21;100427.47;;;11.70;65.57
43488;BME280;29078;41.932;25.554;2023-02-28T09:37:49;100433.25;;;11.74;65.73
43488;BME280;29078;41.932;25.554;2023-02-28T09:40:15;100348.09;;;11.38;65.63
43488;BME280;29078;41.932;25.554;2023-02-28T09:42:45;100364.13;;;11.44;65.56
43488;BME280;29078;41.932;25.554;2023-02-28T09:45:33;100424.91;;;11.95;65.39
43488;BME280;29078;41.932;25.554;2023-02-28T09:48:04;100427.72;;;11.93;65.63
43488;BME280;29078;41.932;25.554;2023-02-28T09:53:09;100439.44;;;11.99;65.66
43488;BME280;29078;41.932;25.554;2023-02-28T09:55:42;100381.50;;;11.55;65.55
43488;BME280;29078;41.932;25.554;2023-02-28T09:58:25;100456.16;;;12.07;65.43
43488;BME280;29078;41.932;25.554;2023-02-28T10:01:07;100331.72;;;11.42;65.47
43488;BME280;29078;41.932;25.554;2023-02-28T10:03:56;100391.59;;;11.76;66.16
43488;BME280;29078;41.932;25.554;2023-02-28T10:06:28;100345.94;;;11.50;65.22
43488;BME280;29078;41.932;25.554;2023-02-28T10:09:04;100397.88;;;11.75;65.92
43488;BME280;29078;41.932;25.554;2023-02-28T10:11:35;100376.69;;;11.75;65.51
43488;BME280;29078;41.932;25.554;2023-02-28T10:14:06;100430.03;;;12.04;65.39
43488;BME280;29078;41.932;25.554;2023-02-28T10:16:41;100375.53;;;11.61;65.81
43488;BME280;29078;41.932;25.554;2023-02-28T10:19:20;100360.34;;;11.63;65.56
43488;BME280;29078;41.932;25.554;2023-02-28T10:21:57;100420.59;;;12.10;65.21
43488;BME280;29078;41.932;25.554;2023-02-28T10:24:41;100417.44;;;12.15;64.63
43488;BME280;29078;41.932;25.554;2023-02-28T10:27:16;100421.75;;;12.16;65.50
43488;BME280;29078;41.932;25.554;2023-02-28T10:29:50;100290.09;;;11.36;64.74
43488;BME280;29078;41.932;25.554;2023-02-28T10:32:18;100419.75;;;12.18;65.19
43488;BME280;29078;41.932;25.554;2023-02-28T10:34:44;100327.25;;;11.75;64.39
43488;BME280;29078;41.932;25.554;2023-02-28T10:37:11;100320.34;;;11.58;64.67
43488;BME280;29078;41.932;25.554;2023-02-28T10:39:45;100373.28;;;12.07;64.37
43488;BME280;29078;41.932;25.554;2023-02-28T10:42:28;100394.94;;;12.19;64.38
43488;BME280;29078;41.932;25.554;2023-02-28T10:45:15;100330.59;;;11.77;64.46
43488;BME280;29078;41.932;25.554;2023-02-28T10:47:55;100323.47;;;11.70;64.78
43488;BME280;29078;41.932;25.554;2023-02-28T10:53:07;100399.75;;;12.15;64.84
43488;BME280;29078;41.932;25.554;2023-02-28T10:55:33;100315.19;;;11.73;64.37
43488;BME280;29078;41.932;25.554;2023-02-28T10:57:59;100375.75;;;12.17;64.19
43488;BME280;29078;41.932;25.554;2023-02-28T11:00:25;100291.56;;;11.63;64.61
43488;BME280;29078;41.932;25.554;2023-02-28T11:02:56;100284.13;;;11.67;64.08
43488;BME280;29078;41.932;25.554;2023-02-28T11:05:26;100370.59;;;12.23;64.15
43488;BME280;29078;41.932;25.554;2023-02-28T11:08:16;100363.47;;;12.24;64.64
43488;BME280;29078;41.932;25.554;2023-02-28T11:10:58;100298.34;;;11.82;63.97
43488;BME280;29078;41.932;25.554;2023-02-28T11:13:34;100283.81;;;11.78;64.24
43488;BME280;29078;41.932;25.554;2023-02-28T11:16:11;100312.59;;;11.89;64.53
43488;BME280;29078;41.932;25.554;2023-02-28T11:19:04;100363.81;;;12.29;64.40
43488;BME280;29078;41.932;25.554;2023-02-28T11:21:36;100311.91;;;11.79;64.35
43488;BME280;29078;41.932;25.554;2023-02-28T11:26:45;100311.75;;;11.89;64.13
43488;BME280;29078;41.932;25.554;2023-02-28T11:31:37;100262.63;;;11.62;64.20
43488;BME280;29078;41.932;25.554;2023-02-28T11:34:26;100312.56;;;11.81;63.97
43488;BME280;29078;41.932;25.554;2023-02-28T11:36:54;100339.38;;;12.02;63.44
43488;BME280;29078;41.932;25.554;2023-02-28T11:39:21;100296.84;;;11.63;63.82
43488;BME280;29078;41.932;25.554;2023-02-28T11:45:21;100348.81;;;11.97;64.29
43488;BME280;29078;41.932;25.554;2023-02-28T11:48:24;100354.25;;;12.12;65.04
43488;BME280;29078;41.932;25.554;2023-02-28T12:00:06;100355.25;;;12.02;65.79
43488;BME280;29078;41.932;25.554;2023-02-28T12:06:01;100354.59;;;12.00;66.27
43488;BME280;29078;41.932;25.554;2023-02-28T12:08:43;100338.06;;;11.98;66.58
43488;BME280;29078;41.932;25.554;2023-02-28T12:14:29;100239.53;;;11.23;66.53
43488;BME280;29078;41.932;25.554;2023-02-28T12:22:39;100365.84;;;11.94;67.59
43488;BME280;29078;41.932;25.554;2023-02-28T12:28:09;100243.16;;;11.22;67.37
43488;BME280;29078;41.932;25.554;2023-02-28T12:30:41;100270.09;;;11.34;67.55
43488;BME280;29078;41.932;25.554;2023-02-28T12:33:12;100278.03;;;11.42;67.31
43488;BME280;29078;41.932;25.554;2023-02-28T12:35:58;100353.78;;;11.92;68.25
43488;BME280;29078;41.932;25.554;2023-02-28T12:38:31;100249.59;;;11.28;67.17
43488;BME280;29078;41.932;25.554;2023-02-28T12:41:05;100249.75;;;11.34;67.82
43488;BME280;29078;41.932;25.554;2023-02-28T12:43:43;100239.69;;;11.30;68.66
43488;BME280;29078;41.932;25.554;2023-02-28T12:46:14;100254.72;;;11.37;67.59
43488;BME280;29078;41.932;25.554;2023-02-28T12:49:06;100342.53;;;11.90;68.89
43488;BME280;29078;41.932;25.554;2023-02-28T12:51:34;100332.59;;;11.92;68.12
43488;BME280;29078;41.932;25.554;2023-02-28T12:54:30;100328.78;;;11.94;68.51
43488;BME280;29078;41.932;25.554;2023-02-28T12:59:59;100334.09;;;11.94;68.80
43488;BME280;29078;41.932;25.554;2023-02-28T13:05:19;100326.47;;;11.99;68.34
43488;BME280;29078;41.932;25.554;2023-02-28T13:07:59;100320.53;;;11.97;68.07
43488;BME280;29078;41.932;25.554;2023-02-28T13:10:58;100333.25;;;11.94;68.71
43488;BME280;29078;41.932;25.554;2023-02-28T13:13:26;100311.25;;;11.85;68.15
43488;BME280;29078;41.932;25.554;2023-02-28T13:16:05;100321.84;;;11.93;69.09
43488;BME280;29078;41.932;25.554;2023-02-28T13:18:38;100322.34;;;11.97;68.88
43488;BME280;29078;41.932;25.554;2023-02-28T13:21:09;100269.75;;;11.61;68.78
43488;BME280;29078;41.932;25.554;2023-02-28T13:28:59;100319.69;;;11.89;68.77
43488;BME280;29078;41.932;25.554;2023-02-28T13:31:25;100301.16;;;11.64;69.09
43488;BME280;29078;41.932;25.554;2023-02-28T13:38:56;100278.16;;;11.65;69.28
43488;BME280;29078;41.932;25.554;2023-02-28T13:44:06;100302.00;;;11.81;69.08
43488;BME280;29078;41.932;25.554;2023-02-28T13:46:34;100307.63;;;11.78;69.45
43488;BME280;29078;41.932;25.554;2023-02-28T13:57:34;100312.88;;;11.62;69.39
43488;BME280;29078;41.932;25.554;2023-02-28T14:06:22;100316.69;;;11.51;69.81
43488;BME280;29078;41.932;25.554;2023-02-28T14:11:51;100313.72;;;11.38;70.48
43488;BME280;29078;41.932;25.554;2023-02-28T14:17:01;100299.50;;;11.31;69.93
43488;BME280;29078;41.932;25.554;2023-02-28T14:19:29;100323.13;;;11.40;70.29
43488;BME280;29078;41.932;25.554;2023-02-28T14:33:00;100341.31;;;11.43;70.34
43488;BME280;29078;41.932;25.554;2023-02-28T14:38:05;100305.94;;;11.36;70.20
43488;BME280;29078;41.932;25.554;2023-02-28T14:40:34;100304.78;;;11.31;70.05
43488;BME280;29078;41.932;25.554;2023-02-28T14:43:03;100316.84;;;11.41;69.76
43488;BME280;29078;41.932;25.554;2023-02-28T14:45:31;100245.41;;;10.85;69.86
43488;BME280;29078;41.932;25.554;2023-02-28T14:47:57;100239.63;;;10.89;69.62
43488;BME280;29078;41.932;25.554;2023-02-28T14:50:28;100331.22;;;11.39;70.31
43488;BME280;29078;41.932;25.554;2023-02-28T14:52:55;100311.56;;;11.33;70.79
43488;BME280;29078;41.932;25.554;2023-02-28T14:55:44;100268.38;;;11.00;70.10
43488;BME280;29078;41.932;25.554;2023-02-28T14:58:26;100301.59;;;11.11;70.42
43488;BME280;29078;41.932;25.554;2023-02-28T15:00:54;100222.59;;;10.67;70.03
43488;BME280;29078;41.932;25.554;2023-02-28T15:03:36;100334.19;;;11.36;70.75